RJFY(METAR)
04/26 16:00
METAR RJFY 260700Z 29022G32KT 9999 SCT030 20/13 Q1009 RMK 4CU030
A2980=
戻る
トップページへ戻る
IMOC Co,.Ltd.